createdAt,value
2018-12-20T00:00:14.676Z,8.31
2018-12-20T00:05:27.239Z,8.23
2018-12-20T00:10:38.245Z,8.25
2018-12-20T00:15:50.210Z,8.27
2018-12-20T00:21:01.346Z,8.36
2018-12-20T00:26:13.579Z,8.33
2018-12-20T00:31:24.540Z,8.28
2018-12-20T00:36:36.482Z,8.33
2018-12-20T00:41:49.737Z,8.31
2018-12-20T00:47:01.724Z,8.28
2018-12-20T00:52:09.289Z,8.34
2018-12-20T00:57:21.317Z,8.30
2018-12-20T01:02:33.151Z,8.32
2018-12-20T01:07:45.480Z,8.39
2018-12-20T01:12:57.653Z,8.38
2018-12-20T01:18:09.030Z,8.37
2018-12-20T01:23:21.010Z,8.38
2018-12-20T01:28:32.405Z,8.48
2018-12-20T01:33:44.356Z,8.46
2018-12-20T01:38:55.455Z,8.39
2018-12-20T01:44:07.579Z,8.34
2018-12-20T01:49:18.584Z,8.33
2018-12-20T01:54:30.717Z,8.31
2018-12-20T01:59:41.704Z,8.27
2018-12-20T02:04:53.945Z,8.30
2018-12-20T02:10:05.473Z,8.36
2018-12-20T02:15:17.498Z,8.35
2018-12-20T02:20:28.493Z,8.40
2018-12-20T02:25:40.522Z,8.43
2018-12-20T02:30:51.702Z,8.42
2018-12-20T02:36:03.860Z,8.45
2018-12-20T02:41:14.921Z,8.46
2018-12-20T02:46:26.830Z,8.56
2018-12-20T02:51:38.238Z,8.49
2018-12-20T02:56:50.161Z,8.47
2018-12-20T03:02:01.142Z,8.54
2018-12-20T03:07:13.311Z,8.63
2018-12-20T03:12:24.312Z,8.58
2018-12-20T03:14:53.725Z,8.59
2018-12-20T03:20:06.924Z,8.66
2018-12-20T03:25:16.057Z,8.55
2018-12-20T03:30:27.293Z,8.67
2018-12-20T03:35:39.258Z,8.62
2018-12-20T03:40:50.343Z,8.66
2018-12-20T03:46:04.189Z,8.69
2018-12-20T03:51:15.695Z,8.67
2018-12-20T03:56:27.822Z,8.69
2018-12-20T04:01:38.889Z,8.71
2018-12-20T04:06:50.954Z,8.78
2018-12-20T04:12:02.202Z,8.74
2018-12-20T04:17:14.321Z,8.79
2018-12-20T04:22:25.474Z,8.76
2018-12-20T04:27:39.997Z,8.80
2018-12-20T04:32:51.291Z,8.80
2018-12-20T04:38:02.334Z,8.79
2018-12-20T04:43:14.358Z,8.73
2018-12-20T04:48:25.795Z,8.53
2018-12-20T04:53:37.814Z,8.28
2018-12-20T04:58:49.166Z,8.16
2018-12-20T05:04:01.457Z,8.17
2018-12-20T05:09:12.567Z,8.25
2018-12-20T05:14:26.405Z,8.21
2018-12-20T05:19:37.675Z,8.20
2018-12-20T05:24:49.926Z,8.21
2018-12-20T05:30:00.885Z,8.16
2018-12-20T05:35:12.962Z,8.14
2018-12-20T05:40:24.164Z,8.10
2018-12-20T05:45:38.337Z,8.14
2018-12-20T05:50:49.381Z,8.05
2018-12-20T05:56:01.515Z,8.09
2018-12-20T06:01:12.373Z,8.02
2018-12-20T06:03:41.713Z,8.02
2018-12-20T06:08:52.688Z,8.02
2018-12-20T06:14:04.661Z,8.03
2018-12-20T06:19:15.686Z,7.98
2018-12-20T06:24:29.714Z,8.03
2018-12-20T06:29:40.670Z,8.03
2018-12-20T06:34:52.647Z,7.98
2018-12-20T06:40:03.818Z,7.96
2018-12-20T06:45:16.464Z,7.99
2018-12-20T06:50:23.926Z,8.00
2018-12-20T06:55:35.881Z,8.00
2018-12-20T07:00:46.786Z,7.97
2018-12-20T07:05:58.710Z,8.06
2018-12-20T07:11:10.099Z,8.06
2018-12-20T07:16:29.271Z,8.10
2018-12-20T07:21:36.718Z,8.21
2018-12-20T07:26:48.946Z,8.24
2018-12-20T07:31:58.529Z,8.33
2018-12-20T07:37:10.722Z,8.40
2018-12-20T07:42:21.999Z,8.40
2018-12-20T07:44:51.735Z,8.39
2018-12-20T07:50:03.564Z,8.38
2018-12-20T07:55:16.718Z,8.33
2018-12-20T08:00:33.551Z,8.32
2018-12-20T08:05:46.319Z,8.35
2018-12-20T08:10:59.230Z,8.36
2018-12-20T08:16:11.667Z,8.41
2018-12-20T08:21:23.030Z,8.48
2018-12-20T08:26:35.286Z,8.45
2018-12-20T08:31:46.494Z,8.50
2018-12-20T08:36:58.596Z,8.58
2018-12-20T08:42:11.479Z,8.54
2018-12-20T08:47:23.522Z,8.54
2018-12-20T08:52:34.406Z,8.59
2018-12-20T08:57:46.689Z,8.63
2018-12-20T09:00:16.014Z,8.61
2018-12-20T09:02:45.674Z,8.59
2018-12-20T09:07:57.922Z,8.62
2018-12-20T09:13:10.038Z,8.69
2018-12-20T09:18:20.986Z,8.79
2018-12-20T09:23:33.092Z,8.84
2018-12-20T09:28:44.073Z,8.84
2018-12-20T09:33:56.169Z,8.94
2018-12-20T09:39:09.670Z,8.85
2018-12-20T09:44:21.794Z,8.88
2018-12-20T09:49:42.611Z,8.86
2018-12-20T09:54:54.853Z,8.90
2018-12-20T10:00:07.541Z,8.81
2018-12-20T10:05:19.803Z,8.85
2018-12-20T10:10:32.945Z,8.87
2018-12-20T10:15:44.978Z,8.89
2018-12-20T10:20:57.013Z,8.93
2018-12-20T10:26:09.192Z,8.96
2018-12-20T10:31:20.133Z,8.90
2018-12-20T10:36:32.130Z,8.77
2018-12-20T10:41:43.622Z,8.72
2018-12-20T10:46:59.882Z,8.83
2018-12-20T10:52:10.710Z,9.01
2018-12-20T10:57:24.594Z,9.06
2018-12-20T11:02:42.250Z,9.12
2018-12-20T11:09:13.726Z,9.19
2018-12-20T11:14:44.670Z,9.29
2018-12-20T11:19:55.681Z,9.38
2018-12-20T11:22:25.187Z,9.42
2018-12-20T11:27:39.094Z,9.50
2018-12-20T11:32:52.601Z,9.61
2018-12-20T11:38:03.550Z,9.58
2018-12-20T11:43:15.350Z,9.60
2018-12-20T11:48:26.378Z,9.67
2018-12-20T11:53:38.302Z,9.67
2018-12-20T11:58:49.292Z,9.71
2018-12-20T12:04:01.307Z,9.69
2018-12-20T12:09:12.142Z,9.68
2018-12-20T12:14:24.368Z,9.65
2018-12-20T12:19:35.625Z,9.70
2018-12-20T12:24:47.974Z,9.86
2018-12-20T12:29:59.044Z,10.17
2018-12-20T12:35:07.866Z,10.24
2018-12-20T12:40:18.957Z,10.07
2018-12-20T12:45:31.197Z,10.05
2018-12-20T12:50:43.110Z,9.88
2018-12-20T12:53:13.161Z,9.86
2018-12-20T12:58:25.195Z,9.80
2018-12-20T13:03:37.682Z,9.73
2018-12-20T13:08:48.601Z,9.75
2018-12-20T13:14:00.761Z,9.77
2018-12-20T13:19:11.786Z,9.76
2018-12-20T13:24:24.599Z,9.73
2018-12-20T13:29:37.271Z,9.66
2018-12-20T13:34:49.531Z,9.60
2018-12-20T13:40:01.634Z,9.41
2018-12-20T13:45:13.941Z,9.26
2018-12-20T13:50:25.018Z,9.23
2018-12-20T13:55:37.787Z,9.20
2018-12-20T14:00:48.872Z,9.18
2018-12-20T14:06:01.014Z,9.22
2018-12-20T14:11:12.005Z,9.23
2018-12-20T14:13:41.444Z,9.25
2018-12-20T14:18:55.807Z,9.18
2018-12-20T14:24:07.741Z,9.03
2018-12-20T14:29:20.440Z,8.86
2018-12-20T14:34:32.473Z,8.75
2018-12-20T14:39:43.595Z,8.65
2018-12-20T14:44:55.537Z,8.60
2018-12-20T14:50:09.558Z,8.63
2018-12-20T14:55:21.478Z,8.56
2018-12-20T15:00:32.508Z,8.53
2018-12-20T15:03:01.999Z,8.50
2018-12-20T15:08:12.972Z,8.49
2018-12-20T15:13:24.929Z,8.51
2018-12-20T15:18:36.106Z,8.52
2018-12-20T15:23:48.323Z,8.58
2018-12-20T15:28:59.425Z,8.66
2018-12-20T15:31:28.839Z,8.69
2018-12-20T15:36:40.955Z,8.70
2018-12-20T15:41:51.908Z,8.73
2018-12-20T15:47:04.399Z,8.71
2018-12-20T15:52:16.708Z,8.73
2018-12-20T15:57:28.762Z,8.82
2018-12-20T16:02:39.907Z,8.87
2018-12-20T16:07:54.209Z,8.89
2018-12-20T16:13:06.533Z,8.94
2018-12-20T16:18:18.409Z,8.97
2018-12-20T16:23:36.577Z,9.04
2018-12-20T16:28:47.587Z,9.07
2018-12-20T16:33:59.591Z,9.09
2018-12-20T16:39:26.318Z,9.09
2018-12-20T16:41:55.739Z,9.09
2018-12-20T16:44:25.205Z,9.09
2018-12-20T16:49:36.266Z,9.09
2018-12-20T16:54:48.698Z,9.00
2018-12-20T17:00:01.951Z,8.99
2018-12-20T17:05:14.380Z,8.84
2018-12-20T17:10:25.477Z,8.79
2018-12-20T17:15:37.569Z,8.74
2018-12-20T17:20:49.610Z,8.74
2018-12-20T17:23:19.266Z,8.72
2018-12-20T17:28:26.802Z,8.71
2018-12-20T17:33:39.035Z,8.69
2018-12-20T17:38:49.966Z,8.68
2018-12-20T17:41:19.318Z,8.68
2018-12-20T17:43:48.745Z,8.68
2018-12-20T17:48:59.761Z,8.74
2018-12-20T17:54:14.055Z,8.71
2018-12-20T17:59:25.124Z,8.62
2018-12-20T18:04:37.219Z,8.58
2018-12-20T18:09:48.280Z,8.47
2018-12-20T18:15:00.273Z,8.38
2018-12-20T18:20:11.881Z,8.42
2018-12-20T18:25:24.203Z,8.45
2018-12-20T18:30:36.311Z,8.47
2018-12-20T18:33:05.676Z,8.49
2018-12-20T18:38:19.690Z,8.59
2018-12-20T18:43:31.941Z,8.59
2018-12-20T18:48:42.909Z,8.47
2018-12-20T18:53:55.953Z,8.46
2018-12-20T18:59:06.914Z,8.46
2018-12-20T19:01:36.268Z,8.51
2018-12-20T19:06:48.353Z,8.52
2018-12-20T19:12:00.421Z,8.53
2018-12-20T19:17:12.538Z,8.55
2018-12-20T19:22:24.575Z,8.58
2018-12-20T19:27:36.541Z,8.57
2018-12-20T19:32:51.781Z,8.59
2018-12-20T19:38:03.848Z,8.57
2018-12-20T19:43:18.175Z,8.50
2018-12-20T19:48:29.372Z,8.53
2018-12-20T19:53:41.633Z,8.52
2018-12-20T19:58:52.675Z,8.53
2018-12-20T20:04:05.323Z,8.61
2018-12-20T20:09:17.582Z,8.64
2018-12-20T20:14:30.240Z,8.64
2018-12-20T20:19:41.435Z,8.62
2018-12-20T20:24:53.761Z,8.69
2018-12-20T20:30:07.380Z,8.76
2018-12-20T20:35:19.479Z,8.79
2018-12-20T20:40:31.384Z,8.86
2018-12-20T20:45:44.419Z,8.85
2018-12-20T20:50:55.655Z,8.91
2018-12-20T20:56:07.994Z,8.90
2018-12-20T21:01:19.226Z,8.83
2018-12-20T21:03:48.705Z,8.74
2018-12-20T21:09:00.081Z,8.58
2018-12-20T21:14:12.291Z,8.47
2018-12-20T21:19:23.324Z,8.39
2018-12-20T21:24:35.901Z,8.38
2018-12-20T21:29:47.023Z,8.31
2018-12-20T21:34:59.022Z,8.31
2018-12-20T21:40:10.206Z,8.29
2018-12-20T21:45:23.042Z,8.35
2018-12-20T21:50:38.998Z,8.36
2018-12-20T21:55:48.318Z,8.44
2018-12-20T22:00:59.438Z,8.45
2018-12-20T22:06:12.046Z,8.47
2018-12-20T22:11:23.184Z,8.53
2018-12-20T22:16:35.568Z,8.61
2018-12-20T22:21:49.837Z,8.67
2018-12-20T22:26:58.681Z,8.72
2018-12-20T22:32:10.263Z,8.84
2018-12-20T22:37:22.534Z,8.88
2018-12-20T22:42:45.780Z,8.88
2018-12-20T22:48:27.654Z,8.95
2018-12-20T22:51:02.661Z,9.03
2018-12-20T22:53:41.878Z,9.03
2018-12-20T22:59:08.926Z,9.10
2018-12-20T23:04:38.324Z,9.17
2018-12-20T23:09:52.829Z,9.15
2018-12-20T23:15:10.110Z,9.16
2018-12-20T23:20:21.099Z,9.20
2018-12-20T23:25:33.124Z,9.26
2018-12-20T23:30:44.256Z,9.23
2018-12-20T23:35:56.855Z,9.23
2018-12-20T23:41:07.888Z,9.24
2018-12-20T23:46:16.492Z,9.25
2018-12-20T23:51:27.711Z,9.28
2018-12-20T23:56:39.982Z,9.33
